sensor_id;sensor_type;location;lat;lon;timestamp;P1;durP1;ratioP1;P2;durP2;ratioP2
50495;SDS011;38806;51.554;5.704;2022-12-18T00:01:15;60.07;;;31.63;;
50495;SDS011;38806;51.554;5.704;2022-12-18T00:03:16;67.32;;;33.60;;
50495;SDS011;38806;51.554;5.704;2022-12-18T00:05:16;50.70;;;27.47;;
50495;SDS011;38806;51.554;5.704;2022-12-18T00:07:16;70.80;;;28.93;;
50495;SDS011;38806;51.554;5.704;2022-12-18T00:09:16;54.20;;;28.67;;
50495;SDS011;38806;51.554;5.704;2022-12-18T00:11:18;69.47;;;32.83;;
50495;SDS011;38806;51.554;5.704;2022-12-18T00:13:18;56.53;;;30.00;;
50495;SDS011;38806;51.554;5.704;2022-12-18T00:15:18;55.53;;;29.63;;
50495;SDS011;38806;51.554;5.704;2022-12-18T00:17:19;68.10;;;33.13;;
50495;SDS011;38806;51.554;5.704;2022-12-18T00:19:19;55.03;;;28.67;;
50495;SDS011;38806;51.554;5.704;2022-12-18T00:21:19;56.83;;;28.17;;
50495;SDS011;38806;51.554;5.704;2022-12-18T00:23:20;54.03;;;26.80;;
50495;SDS011;38806;51.554;5.704;2022-12-18T00:25:20;62.57;;;28.80;;
50495;SDS011;38806;51.554;5.704;2022-12-18T00:27:20;55.00;;;28.90;;
50495;SDS011;38806;51.554;5.704;2022-12-18T00:29:20;61.77;;;30.10;;
50495;SDS011;38806;51.554;5.704;2022-12-18T00:31:21;66.83;;;29.77;;
50495;SDS011;38806;51.554;5.704;2022-12-18T00:33:22;48.47;;;28.43;;
50495;SDS011;38806;51.554;5.704;2022-12-18T00:35:22;56.63;;;28.37;;
50495;SDS011;38806;51.554;5.704;2022-12-18T00:37:22;64.03;;;27.33;;
50495;SDS011;38806;51.554;5.704;2022-12-18T00:39:22;54.57;;;29.23;;
50495;SDS011;38806;51.554;5.704;2022-12-18T00:41:23;64.13;;;29.47;;
50495;SDS011;38806;51.554;5.704;2022-12-18T00:43:42;58.70;;;29.03;;
50495;SDS011;38806;51.554;5.704;2022-12-18T00:45:42;50.80;;;27.87;;
50495;SDS011;38806;51.554;5.704;2022-12-18T00:47:42;58.57;;;31.23;;
50495;SDS011;38806;51.554;5.704;2022-12-18T00:49:42;53.03;;;25.50;;
50495;SDS011;38806;51.554;5.704;2022-12-18T00:51:43;59.40;;;30.40;;
50495;SDS011;38806;51.554;5.704;2022-12-18T00:53:43;69.40;;;32.87;;
50495;SDS011;38806;51.554;5.704;2022-12-18T00:55:43;51.87;;;26.90;;
50495;SDS011;38806;51.554;5.704;2022-12-18T00:57:43;46.77;;;27.03;;
50495;SDS011;38806;51.554;5.704;2022-12-18T00:59:44;63.37;;;28.80;;
50495;SDS011;38806;51.554;5.704;2022-12-18T01:01:44;53.37;;;25.10;;
50495;SDS011;38806;51.554;5.704;2022-12-18T01:03:44;55.30;;;28.33;;
50495;SDS011;38806;51.554;5.704;2022-12-18T01:05:47;50.13;;;28.23;;
50495;SDS011;38806;51.554;5.704;2022-12-18T01:07:47;43.97;;;24.90;;
50495;SDS011;38806;51.554;5.704;2022-12-18T01:09:48;48.43;;;27.33;;
50495;SDS011;38806;51.554;5.704;2022-12-18T01:11:48;60.03;;;25.03;;
50495;SDS011;38806;51.554;5.704;2022-12-18T01:13:48;44.70;;;25.10;;
50495;SDS011;38806;51.554;5.704;2022-12-18T01:15:49;48.17;;;26.03;;
50495;SDS011;38806;51.554;5.704;2022-12-18T01:17:51;52.17;;;26.13;;
50495;SDS011;38806;51.554;5.704;2022-12-18T01:19:51;46.03;;;22.93;;
50495;SDS011;38806;51.554;5.704;2022-12-18T01:21:51;57.93;;;27.13;;
50495;SDS011;38806;51.554;5.704;2022-12-18T01:23:52;57.43;;;27.50;;
50495;SDS011;38806;51.554;5.704;2022-12-18T01:25:53;51.03;;;27.03;;
50495;SDS011;38806;51.554;5.704;2022-12-18T01:27:53;56.30;;;25.47;;
50495;SDS011;38806;51.554;5.704;2022-12-18T01:29:53;45.20;;;23.60;;
50495;SDS011;38806;51.554;5.704;2022-12-18T01:31:56;55.73;;;27.07;;
50495;SDS011;38806;51.554;5.704;2022-12-18T01:33:57;53.80;;;26.73;;
50495;SDS011;38806;51.554;5.704;2022-12-18T01:35:57;47.43;;;25.63;;
50495;SDS011;38806;51.554;5.704;2022-12-18T01:37:57;56.33;;;30.00;;
50495;SDS011;38806;51.554;5.704;2022-12-18T01:39:58;55.67;;;25.77;;
50495;SDS011;38806;51.554;5.704;2022-12-18T01:42:02;55.10;;;26.43;;
50495;SDS011;38806;51.554;5.704;2022-12-18T01:44:46;42.50;;;23.60;;
50495;SDS011;38806;51.554;5.704;2022-12-18T01:46:24;47.27;;;24.33;;
50495;SDS011;38806;51.554;5.704;2022-12-18T01:48:25;46.83;;;23.73;;
50495;SDS011;38806;51.554;5.704;2022-12-18T01:50:38;52.33;;;27.27;;
50495;SDS011;38806;51.554;5.704;2022-12-18T01:52:40;46.10;;;23.73;;
50495;SDS011;38806;51.554;5.704;2022-12-18T01:54:42;49.47;;;24.20;;
50495;SDS011;38806;51.554;5.704;2022-12-18T01:56:43;41.50;;;23.80;;
50495;SDS011;38806;51.554;5.704;2022-12-18T02:00:56;53.70;;;28.13;;
50495;SDS011;38806;51.554;5.704;2022-12-18T02:02:56;53.13;;;24.60;;
50495;SDS011;38806;51.554;5.704;2022-12-18T02:04:56;41.40;;;23.10;;
50495;SDS011;38806;51.554;5.704;2022-12-18T02:09:07;41.33;;;21.90;;
50495;SDS011;38806;51.554;5.704;2022-12-18T02:13:31;42.77;;;22.57;;
50495;SDS011;38806;51.554;5.704;2022-12-18T02:17:55;33.77;;;21.47;;
50495;SDS011;38806;51.554;5.704;2022-12-18T02:28:22;43.87;;;22.57;;
50495;SDS011;38806;51.554;5.704;2022-12-18T02:30:24;43.57;;;19.80;;
50495;SDS011;38806;51.554;5.704;2022-12-18T02:32:27;37.47;;;20.70;;
50495;SDS011;38806;51.554;5.704;2022-12-18T02:34:29;42.00;;;20.60;;
50495;SDS011;38806;51.554;5.704;2022-12-18T02:36:31;42.40;;;20.13;;
50495;SDS011;38806;51.554;5.704;2022-12-18T02:38:32;34.43;;;19.90;;
50495;SDS011;38806;51.554;5.704;2022-12-18T02:40:33;41.13;;;22.23;;
50495;SDS011;38806;51.554;5.704;2022-12-18T02:42:34;43.47;;;21.13;;
50495;SDS011;38806;51.554;5.704;2022-12-18T02:44:35;34.07;;;19.80;;
50495;SDS011;38806;51.554;5.704;2022-12-18T02:46:42;39.27;;;21.70;;
50495;SDS011;38806;51.554;5.704;2022-12-18T02:48:43;38.57;;;19.70;;
50495;SDS011;38806;51.554;5.704;2022-12-18T02:50:51;34.73;;;19.13;;
50495;SDS011;38806;51.554;5.704;2022-12-18T02:56:56;33.77;;;19.13;;
50495;SDS011;38806;51.554;5.704;2022-12-18T02:59:13;46.00;;;21.93;;
50495;SDS011;38806;51.554;5.704;2022-12-18T03:01:16;31.50;;;17.85;;
50495;SDS011;38806;51.554;5.704;2022-12-18T03:03:24;43.50;;;22.70;;
50495;SDS011;38806;51.554;5.704;2022-12-18T03:05:30;37.40;;;19.53;;
50495;SDS011;38806;51.554;5.704;2022-12-18T03:09:50;40.90;;;18.87;;
50495;SDS011;38806;51.554;5.704;2022-12-18T03:11:53;41.63;;;22.23;;
50495;SDS011;38806;51.554;5.704;2022-12-18T03:14:13;32.73;;;17.13;;
50495;SDS011;38806;51.554;5.704;2022-12-18T03:16:18;35.23;;;19.30;;
50495;SDS011;38806;51.554;5.704;2022-12-18T03:18:25;39.87;;;20.63;;
50495;SDS011;38806;51.554;5.704;2022-12-18T03:20:26;36.47;;;18.83;;
50495;SDS011;38806;51.554;5.704;2022-12-18T03:22:29;34.50;;;17.47;;
50495;SDS011;38806;51.554;5.704;2022-12-18T03:24:30;31.97;;;20.80;;
50495;SDS011;38806;51.554;5.704;2022-12-18T03:26:31;32.37;;;18.47;;
50495;SDS011;38806;51.554;5.704;2022-12-18T03:28:32;44.63;;;20.77;;
50495;SDS011;38806;51.554;5.704;2022-12-18T03:30:34;34.93;;;18.73;;
50495;SDS011;38806;51.554;5.704;2022-12-18T03:32:38;34.67;;;20.30;;
50495;SDS011;38806;51.554;5.704;2022-12-18T03:34:41;35.97;;;18.20;;
50495;SDS011;38806;51.554;5.704;2022-12-18T03:36:41;38.20;;;17.67;;
50495;SDS011;38806;51.554;5.704;2022-12-18T03:38:42;31.20;;;20.50;;
50495;SDS011;38806;51.554;5.704;2022-12-18T03:42:52;37.27;;;19.10;;
50495;SDS011;38806;51.554;5.704;2022-12-18T03:45:06;32.77;;;17.10;;
50495;SDS011;38806;51.554;5.704;2022-12-18T03:47:17;33.03;;;19.20;;
50495;SDS011;38806;51.554;5.704;2022-12-18T03:51:42;30.70;;;16.70;;
50495;SDS011;38806;51.554;5.704;2022-12-18T03:55:45;35.23;;;18.43;;
50495;SDS011;38806;51.554;5.704;2022-12-18T03:57:45;27.73;;;15.70;;
50495;SDS011;38806;51.554;5.704;2022-12-18T03:59:47;39.27;;;17.70;;
50495;SDS011;38806;51.554;5.704;2022-12-18T04:01:49;30.13;;;13.80;;
50495;SDS011;38806;51.554;5.704;2022-12-18T04:03:51;35.33;;;21.23;;
50495;SDS011;38806;51.554;5.704;2022-12-18T04:05:53;32.50;;;17.77;;
50495;SDS011;38806;51.554;5.704;2022-12-18T04:07:54;27.07;;;14.80;;
50495;SDS011;38806;51.554;5.704;2022-12-18T04:09:56;38.10;;;18.47;;
50495;SDS011;38806;51.554;5.704;2022-12-18T04:11:56;35.20;;;16.00;;
50495;SDS011;38806;51.554;5.704;2022-12-18T04:13:57;42.40;;;15.63;;
50495;SDS011;38806;51.554;5.704;2022-12-18T04:15:57;31.13;;;15.60;;
50495;SDS011;38806;51.554;5.704;2022-12-18T04:17:58;35.13;;;17.53;;
50495;SDS011;38806;51.554;5.704;2022-12-18T04:19:58;29.80;;;16.10;;
50495;SDS011;38806;51.554;5.704;2022-12-18T04:21:58;34.67;;;16.07;;
50495;SDS011;38806;51.554;5.704;2022-12-18T04:23:58;37.33;;;18.50;;
50495;SDS011;38806;51.554;5.704;2022-12-18T04:25:58;33.20;;;16.30;;
50495;SDS011;38806;51.554;5.704;2022-12-18T04:27:59;35.83;;;17.03;;
50495;SDS011;38806;51.554;5.704;2022-12-18T04:29:59;36.13;;;17.17;;
50495;SDS011;38806;51.554;5.704;2022-12-18T04:31:59;31.30;;;17.30;;
50495;SDS011;38806;51.554;5.704;2022-12-18T04:33:59;28.27;;;17.37;;
50495;SDS011;38806;51.554;5.704;2022-12-18T04:35:59;31.07;;;16.63;;
50495;SDS011;38806;51.554;5.704;2022-12-18T04:37:59;33.97;;;16.67;;
50495;SDS011;38806;51.554;5.704;2022-12-18T04:40:00;33.57;;;17.37;;
50495;SDS011;38806;51.554;5.704;2022-12-18T04:42:00;39.27;;;19.47;;
50495;SDS011;38806;51.554;5.704;2022-12-18T04:44:00;40.73;;;16.70;;
50495;SDS011;38806;51.554;5.704;2022-12-18T04:46:01;34.20;;;16.87;;
50495;SDS011;38806;51.554;5.704;2022-12-18T04:48:02;41.20;;;18.13;;
50495;SDS011;38806;51.554;5.704;2022-12-18T04:50:02;31.53;;;18.53;;
50495;SDS011;38806;51.554;5.704;2022-12-18T04:52:03;40.23;;;22.60;;
50495;SDS011;38806;51.554;5.704;2022-12-18T04:54:03;40.00;;;18.27;;
50495;SDS011;38806;51.554;5.704;2022-12-18T04:58:03;38.27;;;20.63;;
50495;SDS011;38806;51.554;5.704;2022-12-18T05:00:04;43.07;;;21.17;;
50495;SDS011;38806;51.554;5.704;2022-12-18T05:02:05;31.27;;;17.63;;
50495;SDS011;38806;51.554;5.704;2022-12-18T05:04:06;38.93;;;21.03;;
50495;SDS011;38806;51.554;5.704;2022-12-18T05:06:06;33.17;;;18.17;;
50495;SDS011;38806;51.554;5.704;2022-12-18T05:08:07;26.10;;;15.73;;
50495;SDS011;38806;51.554;5.704;2022-12-18T05:10:07;39.63;;;20.27;;
50495;SDS011;38806;51.554;5.704;2022-12-18T05:12:07;32.37;;;18.33;;
50495;SDS011;38806;51.554;5.704;2022-12-18T05:14:08;28.10;;;18.17;;
50495;SDS011;38806;51.554;5.704;2022-12-18T05:16:08;33.13;;;16.73;;
50495;SDS011;38806;51.554;5.704;2022-12-18T05:18:08;36.17;;;16.70;;
50495;SDS011;38806;51.554;5.704;2022-12-18T05:20:08;33.23;;;17.67;;
50495;SDS011;38806;51.554;5.704;2022-12-18T05:22:09;28.50;;;16.00;;
50495;SDS011;38806;51.554;5.704;2022-12-18T05:24:09;29.70;;;17.00;;
50495;SDS011;38806;51.554;5.704;2022-12-18T05:26:09;40.07;;;18.03;;
50495;SDS011;38806;51.554;5.704;2022-12-18T05:28:13;33.33;;;16.83;;
50495;SDS011;38806;51.554;5.704;2022-12-18T05:30:14;26.93;;;14.20;;
50495;SDS011;38806;51.554;5.704;2022-12-18T05:32:14;33.17;;;16.27;;
50495;SDS011;38806;51.554;5.704;2022-12-18T05:34:14;30.97;;;15.87;;
50495;SDS011;38806;51.554;5.704;2022-12-18T05:36:14;31.20;;;17.40;;
50495;SDS011;38806;51.554;5.704;2022-12-18T05:38:15;26.87;;;17.03;;
50495;SDS011;38806;51.554;5.704;2022-12-18T05:40:15;23.73;;;14.30;;
50495;SDS011;38806;51.554;5.704;2022-12-18T05:42:15;31.93;;;17.30;;
50495;SDS011;38806;51.554;5.704;2022-12-18T05:44:15;28.07;;;14.40;;
50495;SDS011;38806;51.554;5.704;2022-12-18T05:46:16;37.57;;;16.97;;
50495;SDS011;38806;51.554;5.704;2022-12-18T05:48:17;36.63;;;17.00;;
50495;SDS011;38806;51.554;5.704;2022-12-18T05:50:17;27.03;;;16.30;;
50495;SDS011;38806;51.554;5.704;2022-12-18T05:52:18;33.00;;;15.23;;
50495;SDS011;38806;51.554;5.704;2022-12-18T05:54:18;26.70;;;15.73;;
50495;SDS011;38806;51.554;5.704;2022-12-18T05:56:19;34.20;;;16.90;;
50495;SDS011;38806;51.554;5.704;2022-12-18T05:58:19;34.90;;;16.80;;
50495;SDS011;38806;51.554;5.704;2022-12-18T06:00:19;28.93;;;15.63;;
50495;SDS011;38806;51.554;5.704;2022-12-18T06:02:20;27.40;;;15.03;;
50495;SDS011;38806;51.554;5.704;2022-12-18T06:04:20;25.67;;;17.07;;
50495;SDS011;38806;51.554;5.704;2022-12-18T06:06:25;35.37;;;19.40;;
50495;SDS011;38806;51.554;5.704;2022-12-18T06:08:26;28.73;;;16.70;;
50495;SDS011;38806;51.554;5.704;2022-12-18T06:10:26;28.27;;;15.57;;
50495;SDS011;38806;51.554;5.704;2022-12-18T06:12:26;46.57;;;20.83;;
50495;SDS011;38806;51.554;5.704;2022-12-18T06:14:26;26.53;;;15.63;;
50495;SDS011;38806;51.554;5.704;2022-12-18T06:16:27;26.23;;;17.53;;
50495;SDS011;38806;51.554;5.704;2022-12-18T06:18:27;33.73;;;17.77;;
50495;SDS011;38806;51.554;5.704;2022-12-18T06:20:27;32.53;;;16.37;;
50495;SDS011;38806;51.554;5.704;2022-12-18T06:22:28;29.67;;;15.03;;
50495;SDS011;38806;51.554;5.704;2022-12-18T06:24:30;27.50;;;14.30;;
50495;SDS011;38806;51.554;5.704;2022-12-18T06:26:30;28.63;;;15.70;;
50495;SDS011;38806;51.554;5.704;2022-12-18T06:28:30;35.40;;;17.43;;
50495;SDS011;38806;51.554;5.704;2022-12-18T06:30:30;27.97;;;16.90;;
50495;SDS011;38806;51.554;5.704;2022-12-18T06:32:30;38.67;;;16.53;;
50495;SDS011;38806;51.554;5.704;2022-12-18T06:34:31;32.30;;;16.90;;
50495;SDS011;38806;51.554;5.704;2022-12-18T06:36:32;31.60;;;16.27;;
50495;SDS011;38806;51.554;5.704;2022-12-18T06:38:33;35.20;;;16.80;;
50495;SDS011;38806;51.554;5.704;2022-12-18T06:40:33;35.53;;;17.37;;
50495;SDS011;38806;51.554;5.704;2022-12-18T06:42:33;34.43;;;18.10;;
50495;SDS011;38806;51.554;5.704;2022-12-18T06:44:34;43.23;;;19.07;;
50495;SDS011;38806;51.554;5.704;2022-12-18T06:46:34;35.83;;;17.17;;
50495;SDS011;38806;51.554;5.704;2022-12-18T06:48:34;34.57;;;18.97;;
50495;SDS011;38806;51.554;5.704;2022-12-18T06:50:34;37.37;;;21.10;;
50495;SDS011;38806;51.554;5.704;2022-12-18T06:52:34;43.03;;;19.83;;
50495;SDS011;38806;51.554;5.704;2022-12-18T06:54:35;38.63;;;18.77;;
50495;SDS011;38806;51.554;5.704;2022-12-18T06:56:35;38.00;;;19.33;;
50495;SDS011;38806;51.554;5.704;2022-12-18T06:58:35;40.60;;;20.13;;
50495;SDS011;38806;51.554;5.704;2022-12-18T07:00:35;42.03;;;22.67;;
50495;SDS011;38806;51.554;5.704;2022-12-18T07:02:36;33.20;;;17.37;;
50495;SDS011;38806;51.554;5.704;2022-12-18T07:04:36;43.27;;;22.70;;
50495;SDS011;38806;51.554;5.704;2022-12-18T07:06:36;41.93;;;19.70;;
50495;SDS011;38806;51.554;5.704;2022-12-18T07:08:36;35.73;;;18.30;;
50495;SDS011;38806;51.554;5.704;2022-12-18T07:10:40;34.33;;;16.10;;
50495;SDS011;38806;51.554;5.704;2022-12-18T07:12:41;31.67;;;16.77;;
50495;SDS011;38806;51.554;5.704;2022-12-18T07:14:41;40.50;;;20.23;;
50495;SDS011;38806;51.554;5.704;2022-12-18T07:16:41;32.67;;;18.47;;
50495;SDS011;38806;51.554;5.704;2022-12-18T07:18:41;32.27;;;17.30;;
50495;SDS011;38806;51.554;5.704;2022-12-18T07:20:42;32.23;;;19.23;;
50495;SDS011;38806;51.554;5.704;2022-12-18T07:22:42;36.37;;;17.30;;
50495;SDS011;38806;51.554;5.704;2022-12-18T07:24:42;40.53;;;22.73;;
50495;SDS011;38806;51.554;5.704;2022-12-18T07:26:42;43.20;;;18.10;;
50495;SDS011;38806;51.554;5.704;2022-12-18T07:28:45;30.43;;;17.93;;
50495;SDS011;38806;51.554;5.704;2022-12-18T07:30:45;37.93;;;19.90;;
50495;SDS011;38806;51.554;5.704;2022-12-18T07:32:45;38.83;;;18.33;;
50495;SDS011;38806;51.554;5.704;2022-12-18T07:34:46;36.77;;;19.30;;
50495;SDS011;38806;51.554;5.704;2022-12-18T07:36:46;33.87;;;19.33;;
50495;SDS011;38806;51.554;5.704;2022-12-18T07:38:47;39.37;;;18.40;;
50495;SDS011;38806;51.554;5.704;2022-12-18T07:40:48;30.83;;;16.37;;
50495;SDS011;38806;51.554;5.704;2022-12-18T07:42:48;35.83;;;18.63;;
50495;SDS011;38806;51.554;5.704;2022-12-18T07:44:48;37.93;;;18.67;;
50495;SDS011;38806;51.554;5.704;2022-12-18T07:46:49;31.53;;;18.87;;
50495;SDS011;38806;51.554;5.704;2022-12-18T07:48:49;38.90;;;18.37;;
50495;SDS011;38806;51.554;5.704;2022-12-18T07:50:49;36.57;;;20.90;;
50495;SDS011;38806;51.554;5.704;2022-12-18T07:52:49;36.07;;;20.27;;
50495;SDS011;38806;51.554;5.704;2022-12-18T07:54:49;43.03;;;24.77;;
50495;SDS011;38806;51.554;5.704;2022-12-18T07:56:50;38.03;;;21.50;;
50495;SDS011;38806;51.554;5.704;2022-12-18T07:58:50;38.80;;;21.23;;
50495;SDS011;38806;51.554;5.704;2022-12-18T08:00:50;39.07;;;22.50;;
50495;SDS011;38806;51.554;5.704;2022-12-18T08:02:52;42.70;;;22.17;;
50495;SDS011;38806;51.554;5.704;2022-12-18T08:04:52;38.97;;;20.80;;
50495;SDS011;38806;51.554;5.704;2022-12-18T08:06:52;35.03;;;20.37;;
50495;SDS011;38806;51.554;5.704;2022-12-18T08:08:53;32.77;;;20.13;;
50495;SDS011;38806;51.554;5.704;2022-12-18T08:10:53;43.27;;;21.23;;
50495;SDS011;38806;51.554;5.704;2022-12-18T08:12:53;37.37;;;20.13;;
50495;SDS011;38806;51.554;5.704;2022-12-18T08:14:53;42.57;;;20.03;;
50495;SDS011;38806;51.554;5.704;2022-12-18T08:16:54;41.43;;;20.80;;
50495;SDS011;38806;51.554;5.704;2022-12-18T08:18:54;42.47;;;24.30;;
50495;SDS011;38806;51.554;5.704;2022-12-18T08:20:54;42.03;;;22.10;;
50495;SDS011;38806;51.554;5.704;2022-12-18T08:22:55;48.53;;;22.53;;
50495;SDS011;38806;51.554;5.704;2022-12-18T08:24:55;41.70;;;22.63;;
50495;SDS011;38806;51.554;5.704;2022-12-18T08:26:55;36.87;;;22.40;;
50495;SDS011;38806;51.554;5.704;2022-12-18T08:28:57;45.33;;;21.23;;
50495;SDS011;38806;51.554;5.704;2022-12-18T08:30:58;42.97;;;22.55;;
50495;SDS011;38806;51.554;5.704;2022-12-18T08:32:58;36.73;;;19.93;;
50495;SDS011;38806;51.554;5.704;2022-12-18T08:34:58;39.42;;;23.40;;
50495;SDS011;38806;51.554;5.704;2022-12-18T08:36:58;44.63;;;23.20;;
50495;SDS011;38806;51.554;5.704;2022-12-18T08:38:59;36.17;;;20.93;;
50495;SDS011;38806;51.554;5.704;2022-12-18T08:40:59;34.78;;;20.98;;
50495;SDS011;38806;51.554;5.704;2022-12-18T08:43:00;33.83;;;21.38;;
50495;SDS011;38806;51.554;5.704;2022-12-18T08:45:19;40.53;;;22.75;;
50495;SDS011;38806;51.554;5.704;2022-12-18T08:47:19;39.05;;;22.98;;
50495;SDS011;38806;51.554;5.704;2022-12-18T08:49:19;54.47;;;26.20;;
50495;SDS011;38806;51.554;5.704;2022-12-18T08:51:19;51.28;;;24.23;;
50495;SDS011;38806;51.554;5.704;2022-12-18T08:53:19;32.60;;;20.13;;
50495;SDS011;38806;51.554;5.704;2022-12-18T08:55:19;38.72;;;20.38;;
50495;SDS011;38806;51.554;5.704;2022-12-18T08:57:20;41.25;;;25.40;;
50495;SDS011;38806;51.554;5.704;2022-12-18T08:59:20;35.30;;;20.42;;
50495;SDS011;38806;51.554;5.704;2022-12-18T09:01:20;34.38;;;22.15;;
50495;SDS011;38806;51.554;5.704;2022-12-18T09:03:21;39.10;;;20.63;;
50495;SDS011;38806;51.554;5.704;2022-12-18T09:05:22;38.88;;;23.10;;
50495;SDS011;38806;51.554;5.704;2022-12-18T09:07:22;35.70;;;23.55;;
50495;SDS011;38806;51.554;5.704;2022-12-18T09:09:22;47.25;;;22.95;;
50495;SDS011;38806;51.554;5.704;2022-12-18T09:11:24;38.10;;;22.15;;
50495;SDS011;38806;51.554;5.704;2022-12-18T09:13:24;38.10;;;20.33;;
50495;SDS011;38806;51.554;5.704;2022-12-18T09:15:24;35.20;;;20.92;;
50495;SDS011;38806;51.554;5.704;2022-12-18T09:17:24;42.63;;;22.05;;
50495;SDS011;38806;51.554;5.704;2022-12-18T09:19:25;33.83;;;22.80;;
50495;SDS011;38806;51.554;5.704;2022-12-18T09:21:26;42.50;;;22.92;;
50495;SDS011;38806;51.554;5.704;2022-12-18T09:23:26;39.25;;;21.80;;
50495;SDS011;38806;51.554;5.704;2022-12-18T09:25:26;38.72;;;21.10;;
50495;SDS011;38806;51.554;5.704;2022-12-18T09:27:31;29.92;;;18.70;;
50495;SDS011;38806;51.554;5.704;2022-12-18T09:29:32;37.33;;;19.77;;
50495;SDS011;38806;51.554;5.704;2022-12-18T09:31:32;30.50;;;18.33;;
50495;SDS011;38806;51.554;5.704;2022-12-18T09:33:33;38.25;;;22.42;;
50495;SDS011;38806;51.554;5.704;2022-12-18T09:35:37;33.20;;;19.67;;
50495;SDS011;38806;51.554;5.704;2022-12-18T09:37:37;36.60;;;19.52;;
50495;SDS011;38806;51.554;5.704;2022-12-18T09:39:37;31.05;;;18.27;;
50495;SDS011;38806;51.554;5.704;2022-12-18T09:43:51;33.05;;;19.00;;
50495;SDS011;38806;51.554;5.704;2022-12-18T09:45:58;38.83;;;19.95;;
50495;SDS011;38806;51.554;5.704;2022-12-18T09:47:59;42.67;;;21.48;;
50495;SDS011;38806;51.554;5.704;2022-12-18T09:50:01;38.20;;;20.15;;
50495;SDS011;38806;51.554;5.704;2022-12-18T09:52:05;32.03;;;18.70;;
50495;SDS011;38806;51.554;5.704;2022-12-18T09:54:12;20.90;;;12.93;;
50495;SDS011;38806;51.554;5.704;2022-12-18T09:56:15;39.25;;;22.45;;
50495;SDS011;38806;51.554;5.704;2022-12-18T10:00:20;37.05;;;22.73;;
50495;SDS011;38806;51.554;5.704;2022-12-18T10:02:25;33.17;;;20.05;;
50495;SDS011;38806;51.554;5.704;2022-12-18T10:04:26;34.20;;;19.38;;
50495;SDS011;38806;51.554;5.704;2022-12-18T10:06:42;32.97;;;19.23;;
50495;SDS011;38806;51.554;5.704;2022-12-18T10:10:52;33.33;;;18.52;;
50495;SDS011;38806;51.554;5.704;2022-12-18T10:12:59;32.90;;;16.98;;
50495;SDS011;38806;51.554;5.704;2022-12-18T10:21:26;26.35;;;16.88;;
50495;SDS011;38806;51.554;5.704;2022-12-18T10:23:33;27.25;;;17.80;;
50495;SDS011;38806;51.554;5.704;2022-12-18T10:25:35;37.15;;;19.20;;
50495;SDS011;38806;51.554;5.704;2022-12-18T10:27:37;33.85;;;20.60;;
50495;SDS011;38806;51.554;5.704;2022-12-18T10:29:37;30.50;;;18.25;;
50495;SDS011;38806;51.554;5.704;2022-12-18T10:31:37;33.50;;;19.95;;
50495;SDS011;38806;51.554;5.704;2022-12-18T10:33:38;33.35;;;18.88;;
50495;SDS011;38806;51.554;5.704;2022-12-18T10:35:38;31.95;;;20.00;;
50495;SDS011;38806;51.554;5.704;2022-12-18T10:37:58;32.58;;;18.33;;
50495;SDS011;38806;51.554;5.704;2022-12-18T10:42:15;38.53;;;20.58;;
50495;SDS011;38806;51.554;5.704;2022-12-18T10:44:20;27.25;;;18.50;;
50495;SDS011;38806;51.554;5.704;2022-12-18T10:46:20;30.67;;;18.90;;
50495;SDS011;38806;51.554;5.704;2022-12-18T10:48:20;38.40;;;20.65;;
50495;SDS011;38806;51.554;5.704;2022-12-18T10:50:31;32.42;;;18.80;;
50495;SDS011;38806;51.554;5.704;2022-12-18T10:52:32;38.05;;;20.23;;
50495;SDS011;38806;51.554;5.704;2022-12-18T10:54:32;34.15;;;17.52;;
50495;SDS011;38806;51.554;5.704;2022-12-18T10:56:34;28.92;;;18.40;;
50495;SDS011;38806;51.554;5.704;2022-12-18T10:58:36;37.55;;;20.73;;
50495;SDS011;38806;51.554;5.704;2022-12-18T11:00:36;43.20;;;20.23;;
50495;SDS011;38806;51.554;5.704;2022-12-18T11:02:37;41.78;;;20.98;;
50495;SDS011;38806;51.554;5.704;2022-12-18T11:04:38;39.63;;;21.20;;
50495;SDS011;38806;51.554;5.704;2022-12-18T11:06:54;34.28;;;21.85;;
50495;SDS011;38806;51.554;5.704;2022-12-18T11:08:59;37.25;;;21.65;;
50495;SDS011;38806;51.554;5.704;2022-12-18T11:10:59;36.85;;;21.20;;
50495;SDS011;38806;51.554;5.704;2022-12-18T11:13:18;36.90;;;22.75;;
50495;SDS011;38806;51.554;5.704;2022-12-18T11:15:29;31.23;;;19.83;;
50495;SDS011;38806;51.554;5.704;2022-12-18T11:17:31;30.23;;;19.95;;
50495;SDS011;38806;51.554;5.704;2022-12-18T11:21:32;37.03;;;19.23;;
50495;SDS011;38806;51.554;5.704;2022-12-18T11:23:46;30.60;;;17.92;;
50495;SDS011;38806;51.554;5.704;2022-12-18T11:25:50;33.28;;;17.88;;
50495;SDS011;38806;51.554;5.704;2022-12-18T11:27:52;30.98;;;18.55;;
50495;SDS011;38806;51.554;5.704;2022-12-18T11:30:06;30.17;;;16.77;;
50495;SDS011;38806;51.554;5.704;2022-12-18T11:34:27;35.67;;;20.73;;
50495;SDS011;38806;51.554;5.704;2022-12-18T11:36:33;32.53;;;19.20;;
50495;SDS011;38806;51.554;5.704;2022-12-18T11:38:35;28.88;;;17.75;;
50495;SDS011;38806;51.554;5.704;2022-12-18T11:40:36;33.47;;;19.08;;
50495;SDS011;38806;51.554;5.704;2022-12-18T11:44:58;33.70;;;18.60;;
50495;SDS011;38806;51.554;5.704;2022-12-18T11:47:09;31.75;;;18.40;;
50495;SDS011;38806;51.554;5.704;2022-12-18T11:51:14;32.80;;;18.08;;
50495;SDS011;38806;51.554;5.704;2022-12-18T11:53:15;34.38;;;19.13;;
50495;SDS011;38806;51.554;5.704;2022-12-18T11:55:18;37.83;;;20.05;;
50495;SDS011;38806;51.554;5.704;2022-12-18T11:59:33;34.10;;;20.42;;
50495;SDS011;38806;51.554;5.704;2022-12-18T12:01:43;31.55;;;19.92;;
50495;SDS011;38806;51.554;5.704;2022-12-18T12:05:57;34.90;;;20.65;;
50495;SDS011;38806;51.554;5.704;2022-12-18T12:08:07;35.83;;;19.95;;
50495;SDS011;38806;51.554;5.704;2022-12-18T12:12:23;34.83;;;21.48;;
50495;SDS011;38806;51.554;5.704;2022-12-18T12:17:11;31.20;;;19.73;;
50495;SDS011;38806;51.554;5.704;2022-12-18T12:21:14;28.13;;;18.60;;
50495;SDS011;38806;51.554;5.704;2022-12-18T12:23:22;35.47;;;20.42;;
50495;SDS011;38806;51.554;5.704;2022-12-18T12:35:43;33.40;;;17.98;;
50495;SDS011;38806;51.554;5.704;2022-12-18T12:39:48;26.90;;;18.23;;
50495;SDS011;38806;51.554;5.704;2022-12-18T12:41:48;31.23;;;18.52;;
50495;SDS011;38806;51.554;5.704;2022-12-18T12:44:08;29.92;;;19.50;;
50495;SDS011;38806;51.554;5.704;2022-12-18T12:46:13;31.08;;;18.10;;
50495;SDS011;38806;51.554;5.704;2022-12-18T12:50:21;30.75;;;18.40;;
50495;SDS011;38806;51.554;5.704;2022-12-18T12:52:33;36.10;;;17.17;;
50495;SDS011;38806;51.554;5.704;2022-12-18T12:54:34;30.05;;;19.73;;
50495;SDS011;38806;51.554;5.704;2022-12-18T13:01:02;31.70;;;19.38;;
50495;SDS011;38806;51.554;5.704;2022-12-18T13:03:08;33.85;;;19.80;;
50495;SDS011;38806;51.554;5.704;2022-12-18T13:05:16;30.42;;;18.70;;
50495;SDS011;38806;51.554;5.704;2022-12-18T13:07:20;34.58;;;18.70;;
50495;SDS011;38806;51.554;5.704;2022-12-18T13:09:23;45.03;;;20.10;;
50495;SDS011;38806;51.554;5.704;2022-12-18T13:13:57;34.55;;;19.00;;
50495;SDS011;38806;51.554;5.704;2022-12-18T13:16:04;33.83;;;18.90;;
50495;SDS011;38806;51.554;5.704;2022-12-18T13:20:07;32.92;;;19.55;;
50495;SDS011;38806;51.554;5.704;2022-12-18T13:22:20;32.03;;;20.27;;
50495;SDS011;38806;51.554;5.704;2022-12-18T13:24:25;33.65;;;19.40;;